Time;durP1;ratioP1;P1;durP2;ratioP2;P2;SDS_P1;SDS_P2;PMS_P1;PMS_P2;Temp;Humidity;BMP_temperature;BMP_pressure;BME280_temperature;BME280_humidity;BME280_pressure;Samples;Min_cycle;Max_cycle;Signal;HPM_P1;HPM_P2
2023/03/09 00:01:38;;;;;;;5.68;2.70;;;;;;;;;;5078074;27;100329;-81
2023/03/09 00:04:05;;;;;;;7.22;2.83;;;;;;;;;;5077936;27;98897;-81
2023/03/09 00:06:32;;;;;;;7.80;2.97;;;;;;;;;;5059858;27;98710;-81
2023/03/09 00:08:58;;;;;;;5.32;2.60;;;;;;;;;;5081430;27;98773;-82
2023/03/09 00:11:25;;;;;;;6.03;3.00;;;;;;;;;;5078540;27;98615;-80
2023/03/09 00:13:52;;;;;;;6.32;2.67;;;;;;;;;;5059949;27;98910;-81
2023/03/09 00:16:23;;;;;;;5.22;2.92;;;;;;;;;;5042127;27;101139;-80
2023/03/09 00:18:53;;;;;;;7.03;3.10;;;;;;;;;;5077908;27;97626;-81
2023/03/09 00:24:17;;;;;;;6.15;2.90;;;;;;;;;;5046203;27;101058;-80
2023/03/09 00:26:47;;;;;;;6.20;3.25;;;;;;;;;;5058350;27;99264;-79
2023/03/09 00:29:14;;;;;;;6.13;3.28;;;;;;;;;;5059124;27;101629;-79
2023/03/09 00:31:41;;;;;;;6.10;2.88;;;;;;;;;;5086868;27;99259;-80
2023/03/09 00:34:08;;;;;;;6.47;3.17;;;;;;;;;;5073219;27;99036;-79
2023/03/09 00:36:35;;;;;;;8.40;3.17;;;;;;;;;;5056934;27;101732;-80
2023/03/09 00:39:01;;;;;;;11.40;3.75;;;;;;;;;;5071334;27;106048;-79
2023/03/09 00:41:30;;;;;;;8.80;3.75;;;;;;;;;;5077432;27;98994;-80
2023/03/09 00:44:00;;;;;;;6.55;3.20;;;;;;;;;;5059556;27;98169;-79
2023/03/09 00:46:28;;;;;;;7.50;3.42;;;;;;;;;;5056729;27;98611;-81
2023/03/09 00:48:54;;;;;;;6.70;3.53;;;;;;;;;;5060053;27;98618;-80
2023/03/09 00:51:23;;;;;;;7.65;3.10;;;;;;;;;;5058331;27;100554;-80
2023/03/09 00:53:49;;;;;;;8.65;3.40;;;;;;;;;;5081329;27;98775;-80
2023/03/09 00:56:18;;;;;;;6.70;3.17;;;;;;;;;;5076683;27;98774;-79
2023/03/09 00:58:44;;;;;;;6.82;3.30;;;;;;;;;;5057628;27;98699;-80
2023/03/09 01:01:13;;;;;;;6.90;3.30;;;;;;;;;;5057784;27;101191;-80
2023/03/09 01:03:40;;;;;;;6.45;3.28;;;;;;;;;;5059033;27;101403;-81
2023/03/09 01:06:07;;;;;;;6.47;3.10;;;;;;;;;;5077804;27;98708;-81
2023/03/09 01:08:34;;;;;;;5.95;3.00;;;;;;;;;;5077948;27;99017;-84
2023/03/09 01:11:03;;;;;;;6.75;3.25;;;;;;;;;;5058271;27;101775;-81
2023/03/09 01:13:30;;;;;;;5.95;3.10;;;;;;;;;;5058811;27;98159;-81
2023/03/09 01:15:56;;;;;;;6.82;3.20;;;;;;;;;;5059016;27;101489;-81
2023/03/09 01:18:23;;;;;;;6.80;3.60;;;;;;;;;;5077640;27;98080;-81
2023/03/09 01:20:49;;;;;;;7.28;3.35;;;;;;;;;;5058632;27;98434;-83
2023/03/09 01:23:16;;;;;;;6.68;3.95;;;;;;;;;;5058664;27;101218;-83
2023/03/09 01:25:43;;;;;;;7.32;3.45;;;;;;;;;;5042116;27;98640;-83
2023/03/09 01:28:10;;;;;;;6.32;3.33;;;;;;;;;;5073773;27;98474;-83
2023/03/09 01:30:36;;;;;;;7.57;3.75;;;;;;;;;;5050357;27;101285;-84
2023/03/09 01:33:03;;;;;;;6.35;3.50;;;;;;;;;;5045450;27;97797;-83
2023/03/09 01:35:30;;;;;;;6.85;3.30;;;;;;;;;;5041826;27;99299;-82
2023/03/09 01:38:00;;;;;;;6.30;3.28;;;;;;;;;;5062149;27;98931;-82
2023/03/09 01:40:27;;;;;;;6.10;3.13;;;;;;;;;;5058109;27;100847;-82
2023/03/09 01:43:01;;;;;;;7.05;3.53;;;;;;;;;;5058391;27;98826;-81
2023/03/09 01:45:27;;;;;;;7.95;3.78;;;;;;;;;;5065519;27;98425;-81
2023/03/09 01:47:57;;;;;;;8.73;3.42;;;;;;;;;;5058927;27;98414;-82
2023/03/09 01:50:30;;;;;;;8.68;3.60;;;;;;;;;;5057920;27;101405;-82
2023/03/09 01:52:57;;;;;;;;;;;;;;;;;;5077442;27;98393;-82
2023/03/09 01:55:29;;;;;;;8.00;3.45;;;;;;;;;;5060107;27;100620;-79
2023/03/09 01:58:01;;;;;;;8.75;3.45;;;;;;;;;;5058755;27;99694;-79
2023/03/09 02:00:29;;;;;;;7.15;3.30;;;;;;;;;;5075602;27;99176;-81
2023/03/09 02:03:05;;;;;;;7.93;3.40;;;;;;;;;;5057623;27;100646;-79
2023/03/09 02:05:38;;;;;;;7.88;3.78;;;;;;;;;;5070101;27;99419;-79
2023/03/09 02:08:05;;;;;;;6.43;3.30;;;;;;;;;;5058133;27;101947;-79
2023/03/09 02:10:35;;;;;;;6.93;3.78;;;;;;;;;;5056867;27;101094;-79
2023/03/09 02:13:06;;;;;;;7.57;3.42;;;;;;;;;;5058162;27;98761;-80
2023/03/09 02:15:32;;;;;;;6.80;3.40;;;;;;;;;;5053711;27;100688;-80
2023/03/09 02:17:59;;;;;;;6.70;3.50;;;;;;;;;;5076372;27;98974;-80
2023/03/09 02:20:25;;;;;;;7.30;3.60;;;;;;;;;;5060827;27;98207;-80
2023/03/09 02:22:52;;;;;;;7.40;3.45;;;;;;;;;;5076508;27;102530;-79
2023/03/09 02:25:23;;;;;;;7.07;3.67;;;;;;;;;;5057332;27;98305;-79
2023/03/09 02:27:51;;;;;;;7.60;3.78;;;;;;;;;;5059458;27;100523;-79
2023/03/09 02:30:17;;;;;;;;;;;;;;;;;;5063978;27;101284;-79
2023/03/09 02:32:43;;;;;;;7.05;3.53;;;;;;;;;;5082406;27;113344;-80
2023/03/09 02:35:10;;;;;;;6.65;3.40;;;;;;;;;;5060005;27;100967;-80
2023/03/09 02:37:43;;;;;;;6.85;3.50;;;;;;;;;;5060809;27;99407;-80
2023/03/09 02:40:33;;;;;;;7.22;3.67;;;;;;;;;;5076605;27;98369;-78
2023/03/09 02:43:04;;;;;;;6.75;3.50;;;;;;;;;;5047222;27;104709;-79
2023/03/09 02:45:32;;;;;;;9.20;3.80;;;;;;;;;;5061016;27;99446;-78
2023/03/09 02:48:00;;;;;;;8.77;3.95;;;;;;;;;;5061438;27;100816;-80
2023/03/09 02:50:26;;;;;;;14.18;3.70;;;;;;;;;;5060349;27;100514;-81
2023/03/09 02:52:53;;;;;;;12.70;4.18;;;;;;;;;;5060773;27;98516;-79
2023/03/09 02:55:19;;;;;;;8.13;3.88;;;;;;;;;;5060382;27;101500;-78
2023/03/09 02:57:46;;;;;;;7.72;3.55;;;;;;;;;;5060842;27;98739;-78
2023/03/09 03:00:16;;;;;;;7.93;3.60;;;;;;;;;;5044024;27;98384;-79
2023/03/09 03:02:43;;;;;;;7.60;3.92;;;;;;;;;;5060189;27;101209;-78
2023/03/09 03:05:09;;;;;;;7.50;3.63;;;;;;;;;;5072415;27;99256;-80
2023/03/09 03:07:39;;;;;;;7.75;3.55;;;;;;;;;;5060854;27;101063;-80
2023/03/09 03:10:06;;;;;;;7.95;3.70;;;;;;;;;;5060268;27;99635;-80
2023/03/09 03:12:32;;;;;;;7.13;3.80;;;;;;;;;;5079326;27;97505;-80
2023/03/09 03:14:59;;;;;;;8.10;3.67;;;;;;;;;;5060829;27;99755;-80
2023/03/09 03:17:26;;;;;;;7.07;3.63;;;;;;;;;;5060237;27;101076;-80
2023/03/09 03:19:54;;;;;;;6.75;3.60;;;;;;;;;;5060375;27;99146;-80
2023/03/09 03:22:20;;;;;;;7.65;3.92;;;;;;;;;;5043617;27;100827;-80
2023/03/09 03:24:48;;;;;;;6.70;3.60;;;;;;;;;;5059936;27;101367;-81
2023/03/09 03:27:14;;;;;;;8.13;3.78;;;;;;;;;;5082451;27;98495;-80
2023/03/09 03:29:41;;;;;;;7.47;3.90;;;;;;;;;;5064425;27;101045;-78
2023/03/09 03:32:08;;;;;;;8.10;3.70;;;;;;;;;;5064564;27;100356;-78
2023/03/09 03:34:35;;;;;;;10.70;4.00;;;;;;;;;;5078329;27;98652;-79
2023/03/09 03:37:02;;;;;;;9.98;4.22;;;;;;;;;;5062588;27;100561;-78
2023/03/09 03:39:31;;;;;;;11.13;3.97;;;;;;;;;;5042669;27;98659;-79
2023/03/09 03:42:01;;;;;;;8.77;3.78;;;;;;;;;;5059908;27;101815;-79
2023/03/09 03:44:27;;;;;;;7.07;3.70;;;;;;;;;;5041592;27;102345;-79
2023/03/09 03:46:54;;;;;;;7.60;4.10;;;;;;;;;;5078812;27;98517;-79
2023/03/09 03:49:21;;;;;;;7.32;3.60;;;;;;;;;;5081320;27;99558;-79
2023/03/09 03:51:48;;;;;;;7.38;3.92;;;;;;;;;;5060051;27;98426;-79
2023/03/09 03:54:15;;;;;;;7.47;3.90;;;;;;;;;;5059623;27;101303;-79
2023/03/09 03:56:42;;;;;;;7.47;3.90;;;;;;;;;;5058921;27;98770;-80
2023/03/09 03:59:12;;;;;;;9.50;4.30;;;;;;;;;;5060478;27;98486;-81
2023/03/09 04:01:38;;;;;;;9.13;3.90;;;;;;;;;;5060543;27;99293;-80
2023/03/09 04:04:07;;;;;;;7.68;3.92;;;;;;;;;;5059508;27;100974;-81
2023/03/09 04:06:38;;;;;;;8.48;4.07;;;;;;;;;;5058951;27;100383;-79
2023/03/09 04:09:05;;;;;;;7.93;4.20;;;;;;;;;;5036614;27;100829;-81
2023/03/09 04:11:33;;;;;;;;;;;;;;;;;;5059842;27;98281;-80
2023/03/09 04:13:59;;;;;;;7.65;3.95;;;;;;;;;;5060953;27;117271;-80
2023/03/09 04:16:26;;;;;;;8.05;3.80;;;;;;;;;;5041701;27;101826;-80
2023/03/09 04:18:52;;;;;;;10.23;3.95;;;;;;;;;;5059663;27;98276;-80
2023/03/09 04:21:21;;;;;;;8.02;3.70;;;;;;;;;;5042509;27;101136;-80
2023/03/09 04:23:48;;;;;;;8.48;3.88;;;;;;;;;;5059583;27;101592;-80
2023/03/09 04:26:15;;;;;;;11.50;4.00;;;;;;;;;;5059754;27;98207;-79
2023/03/09 04:28:52;;;;;;;8.13;4.00;;;;;;;;;;5059592;27;104045;-79
2023/03/09 04:31:20;;;;;;;7.63;4.00;;;;;;;;;;5065427;27;101165;-80
2023/03/09 04:33:46;;;;;;;7.82;3.75;;;;;;;;;;5058965;27;100718;-80
2023/03/09 04:36:16;;;;;;;7.22;4.05;;;;;;;;;;5057746;27;105948;-79
2023/03/09 04:38:45;;;;;;;7.03;3.60;;;;;;;;;;5026302;27;98292;-81
2023/03/09 04:41:13;;;;;;;8.15;4.28;;;;;;;;;;5059274;27;101431;-80
2023/03/09 04:43:43;;;;;;;7.40;3.92;;;;;;;;;;5059055;27;101368;-79
2023/03/09 04:46:10;;;;;;;8.25;3.80;;;;;;;;;;5058319;27;98159;-79
2023/03/09 04:48:37;;;;;;;8.75;4.30;;;;;;;;;;5059375;27;101361;-79
2023/03/09 04:51:04;;;;;;;8.00;3.85;;;;;;;;;;5059305;27;98419;-79
2023/03/09 04:53:31;;;;;;;8.00;4.07;;;;;;;;;;5062787;27;98547;-79
2023/03/09 04:55:59;;;;;;;;;;;;;;;;;;5042427;27;100649;-80
2023/03/09 04:58:25;;;;;;;7.07;3.38;;;;;;;;;;5060214;27;99110;-79
2023/03/09 05:00:53;;;;;;;7.28;3.60;;;;;;;;;;5056637;27;105538;-79
2023/03/09 05:03:21;;;;;;;7.40;3.45;;;;;;;;;;5058381;27;102016;-79
2023/03/09 05:05:52;;;;;;;8.05;4.18;;;;;;;;;;5042818;27;99358;-79
2023/03/09 05:08:21;;;;;;;7.25;3.60;;;;;;;;;;5059186;27;101351;-78
2023/03/09 05:10:48;;;;;;;9.20;4.28;;;;;;;;;;5058259;27;101545;-79
2023/03/09 05:13:16;;;;;;;7.38;3.63;;;;;;;;;;5058130;27;98294;-79
2023/03/09 05:15:43;;;;;;;9.35;4.10;;;;;;;;;;5042401;27;98946;-80
2023/03/09 05:18:11;;;;;;;8.18;3.90;;;;;;;;;;5041989;27;98362;-80
2023/03/09 05:20:38;;;;;;;7.50;3.90;;;;;;;;;;5058357;27;100988;-80
2023/03/09 05:23:06;;;;;;;8.20;3.80;;;;;;;;;;5040988;27;103437;-80
2023/03/09 05:25:32;;;;;;;7.43;3.80;;;;;;;;;;5058601;27;98603;-80
2023/03/09 05:28:01;;;;;;;7.18;3.58;;;;;;;;;;5058197;27;101264;-79
2023/03/09 05:30:30;;;;;;;8.02;4.10;;;;;;;;;;5057165;27;101346;-79
2023/03/09 05:32:59;;;;;;;7.65;3.78;;;;;;;;;;5058591;27;98193;-80
2023/03/09 05:35:26;;;;;;;6.90;3.53;;;;;;;;;;5041382;27;101714;-79
2023/03/09 05:37:52;;;;;;;7.47;3.80;;;;;;;;;;5054429;27;101335;-78
2023/03/09 05:40:22;;;;;;;7.00;3.40;;;;;;;;;;5045976;27;100417;-80
2023/03/09 05:42:54;;;;;;;8.27;3.78;;;;;;;;;;5041347;27;105081;-79
2023/03/09 05:45:20;;;;;;;6.85;3.60;;;;;;;;;;5076336;27;98225;-79
2023/03/09 05:47:47;;;;;;;8.13;3.80;;;;;;;;;;5074699;27;100993;-80
2023/03/09 05:50:13;;;;;;;9.18;4.18;;;;;;;;;;5076655;27;98718;-79
2023/03/09 05:52:40;;;;;;;13.45;3.75;;;;;;;;;;5057113;27;98500;-80
2023/03/09 05:55:07;;;;;;;10.35;3.83;;;;;;;;;;5058240;27;98440;-78
2023/03/09 05:57:37;;;;;;;16.60;4.13;;;;;;;;;;5057320;27;99892;-78
2023/03/09 06:00:04;;;;;;;9.00;3.70;;;;;;;;;;5061223;27;98202;-79
2023/03/09 06:02:38;;;;;;;8.25;3.83;;;;;;;;;;5057720;27;98956;-79
2023/03/09 06:05:07;;;;;;;7.88;4.20;;;;;;;;;;5041754;27;97817;-79
2023/03/09 06:07:34;;;;;;;8.13;4.25;;;;;;;;;;5058048;27;100611;-81
2023/03/09 06:10:01;;;;;;;7.28;3.55;;;;;;;;;;5040329;27;101421;-79
2023/03/09 06:12:27;;;;;;;7.40;3.60;;;;;;;;;;5056752;27;99508;-79
2023/03/09 06:14:55;;;;;;;8.10;4.10;;;;;;;;;;5057757;27;102070;-80
2023/03/09 06:17:25;;;;;;;9.20;4.28;;;;;;;;;;5040891;27;98808;-79
2023/03/09 06:19:52;;;;;;;9.68;4.30;;;;;;;;;;5079393;27;98290;-79
2023/03/09 06:22:19;;;;;;;7.57;3.92;;;;;;;;;;5040563;27;100600;-79
2023/03/09 06:24:47;;;;;;;7.90;4.10;;;;;;;;;;5056227;27;99644;-78
2023/03/09 06:27:14;;;;;;;7.80;3.83;;;;;;;;;;5040559;27;101227;-78
2023/03/09 06:29:41;;;;;;;9.10;4.32;;;;;;;;;;5040212;27;100184;-79
2023/03/09 06:32:07;;;;;;;7.63;3.88;;;;;;;;;;5057214;27;98615;-80
2023/03/09 06:34:36;;;;;;;8.93;3.85;;;;;;;;;;5039007;27;100151;-80
2023/03/09 06:37:05;;;;;;;10.93;4.20;;;;;;;;;;5042272;27;101063;-80
2023/03/09 06:39:32;;;;;;;10.35;4.50;;;;;;;;;;5066151;27;98622;-80
2023/03/09 06:42:00;;;;;;;8.27;3.90;;;;;;;;;;5059722;27;101139;-80
2023/03/09 06:44:34;;;;;;;7.70;3.88;;;;;;;;;;5056306;27;98654;-79
2023/03/09 06:47:02;;;;;;;9.13;4.25;;;;;;;;;;5040055;27;101027;-79
2023/03/09 06:49:29;;;;;;;7.82;4.10;;;;;;;;;;5056524;27;98827;-80
2023/03/09 06:51:58;;;;;;;9.13;4.32;;;;;;;;;;5056847;27;98450;-80
2023/03/09 06:54:25;;;;;;;8.07;4.20;;;;;;;;;;5040537;27;100754;-79
2023/03/09 06:57:00;;;;;;;8.60;4.13;;;;;;;;;;5040453;27;104162;-79
2023/03/09 06:59:30;;;;;;;7.93;4.13;;;;;;;;;;5056859;27;98687;-81
2023/03/09 07:01:58;;;;;;;8.98;4.32;;;;;;;;;;5040055;27;100912;-79
2023/03/09 07:04:25;;;;;;;9.43;3.83;;;;;;;;;;5059372;27;101671;-79
2023/03/09 07:06:51;;;;;;;8.73;3.95;;;;;;;;;;5073953;27;98468;-81
2023/03/09 07:09:18;;;;;;;9.85;4.10;;;;;;;;;;5075266;27;98550;-79
2023/03/09 07:11:45;;;;;;;8.35;4.18;;;;;;;;;;5056885;27;98738;-79
2023/03/09 07:14:11;;;;;;;9.50;4.25;;;;;;;;;;5039829;27;101065;-79
2023/03/09 07:16:38;;;;;;;8.52;3.78;;;;;;;;;;5077558;27;99490;-77
2023/03/09 07:19:04;;;;;;;12.38;4.20;;;;;;;;;;5059789;27;97724;-77
2023/03/09 07:21:30;;;;;;;8.40;3.67;;;;;;;;;;5075380;27;98711;-79
2023/03/09 07:23:58;;;;;;;10.43;4.30;;;;;;;;;;5077855;27;99933;-79
2023/03/09 07:26:25;;;;;;;7.00;3.60;;;;;;;;;;5080720;27;99349;-79
2023/03/09 07:28:52;;;;;;;10.18;3.85;;;;;;;;;;5060184;27;104547;-79
2023/03/09 07:31:18;;;;;;;7.90;3.60;;;;;;;;;;5059343;27;98332;-79
2023/03/09 07:33:47;;;;;;;8.15;3.72;;;;;;;;;;5077747;27;99259;-78
2023/03/09 07:36:14;;;;;;;8.43;3.50;;;;;;;;;;5076759;27;100241;-80
2023/03/09 07:38:40;;;;;;;7.63;2.95;;;;;;;;;;5063480;27;99376;-78
2023/03/09 07:41:07;;;;;;;6.43;3.17;;;;;;;;;;5078502;27;98478;-78
2023/03/09 07:43:33;;;;;;;7.40;2.80;;;;;;;;;;5078745;27;98263;-79
2023/03/09 07:46:06;;;;;;;6.30;2.90;;;;;;;;;;5059047;27;98696;-79
2023/03/09 07:48:33;;;;;;;6.25;2.90;;;;;;;;;;5080011;27;99242;-80
2023/03/09 07:51:00;;;;;;;7.18;3.00;;;;;;;;;;5073467;27;99406;-78
2023/03/09 07:53:27;;;;;;;;;;;;;;;;;;5074390;27;99917;-79
2023/03/09 07:55:55;;;;;;;5.90;2.50;;;;;;;;;;5075655;27;123924;-79
2023/03/09 07:58:21;;;;;;;;;;;;;;;;;;5076436;27;98753;-78
2023/03/09 08:00:47;;;;;;;5.40;2.70;;;;;;;;;;5076995;27;128037;-78
2023/03/09 08:03:14;;;;;;;6.65;2.55;;;;;;;;;;5076619;27;98760;-78
2023/03/09 08:05:41;;;;;;;6.85;2.92;;;;;;;;;;5058274;27;98482;-78
2023/03/09 08:08:07;;;;;;;6.50;3.13;;;;;;;;;;5062132;27;98683;-79
2023/03/09 08:10:34;;;;;;;5.55;2.80;;;;;;;;;;5057533;27;98522;-78
2023/03/09 08:13:00;;;;;;;5.45;2.70;;;;;;;;;;5057455;27;98453;-78
2023/03/09 08:15:27;;;;;;;5.10;2.45;;;;;;;;;;5076311;27;100297;-77
2023/03/09 08:17:53;;;;;;;5.38;2.75;;;;;;;;;;5073889;27;98715;-77
2023/03/09 08:20:20;;;;;;;6.07;2.67;;;;;;;;;;5075538;27;99345;-77
2023/03/09 08:22:47;;;;;;;4.88;2.20;;;;;;;;;;5075589;27;99081;-75
2023/03/09 08:25:16;;;;;;;7.70;2.42;;;;;;;;;;5075968;27;98216;-75
2023/03/09 08:27:43;;;;;;;6.68;2.85;;;;;;;;;;5077186;27;99180;-76
2023/03/09 08:30:11;;;;;;;5.85;2.58;;;;;;;;;;5061784;27;99118;-76
2023/03/09 08:32:38;;;;;;;5.93;2.80;;;;;;;;;;5058326;27;98430;-76
2023/03/09 08:35:05;;;;;;;5.28;2.55;;;;;;;;;;5076617;27;99205;-75
2023/03/09 08:37:31;;;;;;;6.30;2.67;;;;;;;;;;5075740;27;98767;-75
2023/03/09 08:39:58;;;;;;;6.47;2.80;;;;;;;;;;5076833;27;99000;-76
2023/03/09 08:42:24;;;;;;;5.75;2.90;;;;;;;;;;5076457;27;98931;-78
2023/03/09 08:44:51;;;;;;;6.80;2.80;;;;;;;;;;5037813;27;98592;-76
2023/03/09 08:47:17;;;;;;;7.28;3.15;;;;;;;;;;5077284;27;99047;-79
2023/03/09 08:49:46;;;;;;;7.30;3.05;;;;;;;;;;5058020;27;98835;-76
2023/03/09 08:52:13;;;;;;;6.22;3.15;;;;;;;;;;5080097;27;99106;-77
2023/03/09 08:54:39;;;;;;;5.68;2.70;;;;;;;;;;5076005;27;99413;-76
2023/03/09 08:57:06;;;;;;;5.65;2.90;;;;;;;;;;5073852;27;97521;-76
2023/03/09 08:59:32;;;;;;;4.85;2.50;;;;;;;;;;5076097;27;98821;-77
2023/03/09 09:01:59;;;;;;;6.03;2.70;;;;;;;;;;5057300;27;101828;-78
2023/03/09 09:04:26;;;;;;;7.00;2.85;;;;;;;;;;5056875;27;100672;-78
2023/03/09 09:06:52;;;;;;;4.65;2.38;;;;;;;;;;5074924;27;103927;-78
2023/03/09 09:09:19;;;;;;;5.95;2.72;;;;;;;;;;5075761;27;99291;-79
2023/03/09 09:11:46;;;;;;;4.95;2.53;;;;;;;;;;5077209;27;98298;-77
2023/03/09 09:14:12;;;;;;;5.88;2.95;;;;;;;;;;5077447;27;99638;-78
2023/03/09 09:16:39;;;;;;;5.57;2.60;;;;;;;;;;5080548;27;98731;-78
2023/03/09 09:19:05;;;;;;;6.25;2.92;;;;;;;;;;5063153;27;99330;-78
2023/03/09 09:21:32;;;;;;;5.82;2.50;;;;;;;;;;5047135;27;100429;-78
2023/03/09 09:23:58;;;;;;;6.90;2.95;;;;;;;;;;5044936;27;98823;-77
2023/03/09 09:26:25;;;;;;;6.55;2.80;;;;;;;;;;5076065;27;98830;-77
2023/03/09 09:28:51;;;;;;;5.38;2.60;;;;;;;;;;5056589;27;102025;-78
2023/03/09 09:31:22;;;;;;;5.70;2.72;;;;;;;;;;5048536;27;98355;-76
2023/03/09 09:33:52;;;;;;;6.15;3.05;;;;;;;;;;5039794;27;100386;-76
2023/03/09 09:36:19;;;;;;;7.03;2.85;;;;;;;;;;5078853;27;98718;-76
2023/03/09 09:38:46;;;;;;;5.82;2.80;;;;;;;;;;5056623;27;98703;-78
2023/03/09 09:41:22;;;;;;;6.22;2.67;;;;;;;;;;5067768;27;98815;-77
2023/03/09 09:43:50;;;;;;;5.68;2.90;;;;;;;;;;5057857;27;98378;-77
2023/03/09 09:46:16;;;;;;;;;;;;;;;;;;5058045;27;101114;-78
2023/03/09 09:48:44;;;;;;;5.70;2.38;;;;;;;;;;5058525;27;103309;-77
2023/03/09 09:51:19;;;;;;;6.03;2.70;;;;;;;;;;5076006;27;98674;-78
2023/03/09 09:53:58;;;;;;;5.85;2.80;;;;;;;;;;5076050;27;99050;-78
2023/03/09 09:56:27;;;;;;;5.78;2.70;;;;;;;;;;5075482;27;99626;-77
2023/03/09 09:59:00;;;;;;;5.57;2.70;;;;;;;;;;5060989;27;98668;-76
2023/03/09 10:01:47;;;;;;;6.45;2.70;;;;;;;;;;5057861;27;98820;-77
2023/03/09 10:04:17;;;;;;;6.40;2.97;;;;;;;;;;5075999;27;98052;-77
2023/03/09 10:06:46;;;;;;;7.43;2.70;;;;;;;;;;5075145;27;99097;-78
2023/03/09 10:09:17;;;;;;;10.48;2.80;;;;;;;;;;5069078;27;98754;-78
2023/03/09 10:11:45;;;;;;;5.30;2.65;;;;;;;;;;5056618;27;97851;-78
2023/03/09 10:14:23;;;;;;;6.20;3.15;;;;;;;;;;5076247;27;98737;-77
2023/03/09 10:16:54;;;;;;;6.57;3.08;;;;;;;;;;5073848;27;99321;-78
2023/03/09 10:19:27;;;;;;;6.43;3.03;;;;;;;;;;5067208;27;99459;-78
2023/03/09 10:21:58;;;;;;;5.93;2.95;;;;;;;;;;5077513;27;98619;-77
2023/03/09 10:24:25;;;;;;;6.65;3.13;;;;;;;;;;5057367;27;98229;-77
2023/03/09 10:27:01;;;;;;;5.90;2.90;;;;;;;;;;5072618;27;102939;-77
2023/03/09 10:29:39;;;;;;;6.25;3.05;;;;;;;;;;5075857;27;98922;-78
2023/03/09 10:32:11;;;;;;;5.95;2.90;;;;;;;;;;5057038;27;99014;-78
2023/03/09 10:34:51;;;;;;;5.78;2.72;;;;;;;;;;5056764;27;98817;-78
2023/03/09 10:37:20;;;;;;;5.85;2.95;;;;;;;;;;5074869;27;98139;-78
2023/03/09 10:39:46;;;;;;;6.80;3.15;;;;;;;;;;5075396;27;98494;-79
2023/03/09 10:42:16;;;;;;;6.40;3.10;;;;;;;;;;5078899;27;98914;-77
2023/03/09 10:44:45;;;;;;;7.03;3.15;;;;;;;;;;5074398;27;99213;-77
2023/03/09 10:47:12;;;;;;;5.82;2.97;;;;;;;;;;5057371;27;99035;-77
2023/03/09 10:49:38;;;;;;;5.68;2.83;;;;;;;;;;5078111;27;98831;-77
2023/03/09 10:52:06;;;;;;;6.20;2.88;;;;;;;;;;5077411;27;98902;-78
2023/03/09 10:54:38;;;;;;;6.95;3.45;;;;;;;;;;5078475;27;100147;-78
2023/03/09 10:57:24;;;;;;;6.35;3.22;;;;;;;;;;5060691;27;99575;-76
2023/03/09 10:59:54;;;;;;;6.95;3.22;;;;;;;;;;5078708;27;98569;-76
2023/03/09 11:02:27;;;;;;;5.95;2.95;;;;;;;;;;5079114;27;98888;-76
2023/03/09 11:04:53;;;;;;;6.07;2.90;;;;;;;;;;5079259;27;103096;-76
2023/03/09 11:07:25;;;;;;;6.35;3.13;;;;;;;;;;5069051;27;98396;-76
2023/03/09 11:09:54;;;;;;;6.72;3.28;;;;;;;;;;5077440;27;100710;-76
2023/03/09 11:12:34;;;;;;;6.35;3.20;;;;;;;;;;5078201;27;98490;-77
2023/03/09 11:15:02;;;;;;;6.55;3.15;;;;;;;;;;5077984;27;102853;-77
2023/03/09 11:17:37;;;;;;;7.30;3.42;;;;;;;;;;5078554;27;98907;-77
2023/03/09 11:20:12;;;;;;;7.75;3.67;;;;;;;;;;5080443;27;98119;-77
2023/03/09 11:22:42;;;;;;;7.07;3.65;;;;;;;;;;5059577;27;98380;-77
2023/03/09 11:25:17;;;;;;;6.70;3.17;;;;;;;;;;5059089;27;101021;-77
2023/03/09 11:27:48;;;;;;;6.93;3.30;;;;;;;;;;5082792;27;97688;-77
2023/03/09 11:30:16;;;;;;;6.35;3.15;;;;;;;;;;5078046;27;98885;-77
2023/03/09 11:32:43;;;;;;;7.50;3.30;;;;;;;;;;5077843;27;98688;-77
2023/03/09 11:35:14;;;;;;;7.07;3.30;;;;;;;;;;5073982;27;99181;-78
2023/03/09 11:37:46;;;;;;;7.05;3.47;;;;;;;;;;5058747;27;99112;-77
2023/03/09 11:40:17;;;;;;;7.22;3.08;;;;;;;;;;5078410;27;98406;-76
2023/03/09 11:42:53;;;;;;;6.63;3.33;;;;;;;;;;5078129;27;99142;-76
2023/03/09 11:45:21;;;;;;;6.90;3.17;;;;;;;;;;5077921;27;98829;-77
2023/03/09 11:47:52;;;;;;;7.22;3.33;;;;;;;;;;5074049;27;98763;-77
2023/03/09 11:50:45;;;;;;;6.60;3.05;;;;;;;;;;5081298;27;98777;-78
2023/03/09 11:53:18;;;;;;;7.10;3.35;;;;;;;;;;5020793;27;100659;-77
2023/03/09 11:55:48;;;;;;;7.72;3.70;;;;;;;;;;5059367;27;98325;-76
2023/03/09 11:58:18;;;;;;;6.25;3.15;;;;;;;;;;5059227;27;99304;-77
2023/03/09 12:00:47;;;;;;;7.60;3.60;;;;;;;;;;5075698;27;99234;-77
2023/03/09 12:03:17;;;;;;;6.78;3.25;;;;;;;;;;5077818;27;99088;-77
2023/03/09 12:05:47;;;;;;;6.13;3.08;;;;;;;;;;5059462;27;99498;-76
2023/03/09 12:08:30;;;;;;;6.80;3.00;;;;;;;;;;5078041;27;98351;-76
2023/03/09 12:11:00;;;;;;;6.93;3.50;;;;;;;;;;5058819;27;103348;-77
2023/03/09 12:13:30;;;;;;;6.70;3.20;;;;;;;;;;5080931;27;99331;-77
2023/03/09 12:16:29;;;;;;;6.35;3.00;;;;;;;;;;5050681;27;101137;-77
2023/03/09 12:19:11;;;;;;;6.50;3.20;;;;;;;;;;5014182;27;104742;-77
2023/03/09 12:21:39;;;;;;;6.47;3.10;;;;;;;;;;5077572;27;98462;-78
2023/03/09 12:24:21;;;;;;;7.03;3.13;;;;;;;;;;5059315;27;98787;-77
2023/03/09 12:27:06;;;;;;;6.85;3.20;;;;;;;;;;5057887;27;102350;-77
2023/03/09 12:29:37;;;;;;;6.10;3.10;;;;;;;;;;5077681;27;98950;-77
2023/03/09 12:32:18;;;;;;;7.15;3.50;;;;;;;;;;5077652;27;98860;-77
2023/03/09 12:34:46;;;;;;;6.65;3.15;;;;;;;;;;5079888;27;99081;-77
2023/03/09 12:37:30;;;;;;;6.53;3.03;;;;;;;;;;5076889;27;100792;-77
2023/03/09 12:39:58;;;;;;;6.32;3.00;;;;;;;;;;5077591;27;98760;-77
2023/03/09 12:42:24;;;;;;;;;;;;;;;;;;5077659;27;98398;-77
2023/03/09 12:44:51;;;;;;;6.45;2.97;;;;;;;;;;5078834;27;98934;-77
2023/03/09 12:47:33;;;;;;;6.88;3.13;;;;;;;;;;5077121;27;99184;-77
2023/03/09 12:50:00;;;;;;;6.47;2.88;;;;;;;;;;5059579;27;98461;-78
2023/03/09 12:52:39;;;;;;;6.70;3.00;;;;;;;;;;5076392;27;99320;-78
2023/03/09 12:55:14;;;;;;;6.20;3.20;;;;;;;;;;5058876;27;99162;-77
2023/03/09 12:57:41;;;;;;;6.88;3.03;;;;;;;;;;5077549;27;98359;-77
2023/03/09 13:00:29;;;;;;;6.38;3.08;;;;;;;;;;5078564;27;99140;-78
2023/03/09 13:03:13;;;;;;;6.60;3.17;;;;;;;;;;5058315;27;98266;-78
2023/03/09 13:05:41;;;;;;;6.65;3.28;;;;;;;;;;5076021;27;98325;-78
2023/03/09 13:08:19;;;;;;;6.63;3.08;;;;;;;;;;5076032;27;98855;-76
2023/03/09 13:10:46;;;;;;;6.82;3.20;;;;;;;;;;5076412;27;97428;-77
2023/03/09 13:13:31;;;;;;;7.70;3.40;;;;;;;;;;5044457;27;98346;-77
2023/03/09 13:16:17;;;;;;;6.80;3.08;;;;;;;;;;5068583;27;98588;-78
2023/03/09 13:18:43;;;;;;;6.22;3.03;;;;;;;;;;5045469;27;99177;-78
2023/03/09 13:21:48;;;;;;;7.15;3.28;;;;;;;;;;5082015;27;99344;-76
2023/03/09 13:24:17;;;;;;;8.30;3.28;;;;;;;;;;4956934;28;98793;-76
2023/03/09 13:26:45;;;;;;;9.63;3.28;;;;;;;;;;4971606;28;99655;-76
2023/03/09 13:29:15;;;;;;;8.32;3.05;;;;;;;;;;5022039;27;99278;-76
2023/03/09 13:31:44;;;;;;;10.50;3.03;;;;;;;;;;5075721;27;98234;-76
2023/03/09 13:34:20;;;;;;;6.53;2.88;;;;;;;;;;5076195;27;98731;-76
2023/03/09 13:36:47;;;;;;;9.07;3.40;;;;;;;;;;5073602;27;98579;-76
2023/03/09 13:39:16;;;;;;;16.25;3.42;;;;;;;;;;5076697;27;98524;-77
2023/03/09 13:41:43;;;;;;;8.20;3.00;;;;;;;;;;5056957;27;101994;-78
2023/03/09 13:44:13;;;;;;;6.43;2.80;;;;;;;;;;5078654;27;100112;-76
2023/03/09 13:46:40;;;;;;;6.70;2.95;;;;;;;;;;5045711;27;101780;-76
2023/03/09 13:49:12;;;;;;;9.95;3.10;;;;;;;;;;5075793;27;98746;-78
2023/03/09 13:51:41;;;;;;;7.53;2.67;;;;;;;;;;5076459;27;98361;-78
2023/03/09 13:54:21;;;;;;;5.93;2.85;;;;;;;;;;5052024;27;98724;-76
2023/03/09 13:57:01;;;;;;;6.60;2.88;;;;;;;;;;5063455;27;99311;-78
2023/03/09 13:59:42;;;;;;;6.13;2.90;;;;;;;;;;5070330;27;98157;-78
2023/03/09 14:02:09;;;;;;;7.35;2.88;;;;;;;;;;5057980;27;100938;-78
2023/03/09 14:04:35;;;;;;;;;;;;;;;;;;5065625;27;98693;-78
2023/03/09 14:07:02;;;;;;;8.20;3.03;;;;;;;;;;5079803;27;114341;-77
2023/03/09 14:09:49;;;;;;;6.43;2.60;;;;;;;;;;5072662;27;99444;-77
2023/03/09 14:12:21;;;;;;;5.70;2.60;;;;;;;;;;5056163;27;98658;-77
2023/03/09 14:14:48;;;;;;;6.60;3.00;;;;;;;;;;5074825;27;98749;-78
2023/03/09 14:17:16;;;;;;;4.93;2.72;;;;;;;;;;5075410;27;98768;-78
2023/03/09 14:19:43;;;;;;;5.68;2.80;;;;;;;;;;5061682;27;98378;-77
2023/03/09 14:22:17;;;;;;;5.57;2.85;;;;;;;;;;5057014;27;101270;-78
2023/03/09 14:24:43;;;;;;;4.50;2.38;;;;;;;;;;5061614;27;98705;-76
2023/03/09 14:27:11;;;;;;;6.40;2.60;;;;;;;;;;5082966;27;98155;-77
2023/03/09 14:29:37;;;;;;;5.10;2.50;;;;;;;;;;5085200;27;98569;-76
2023/03/09 14:32:16;;;;;;;4.88;2.40;;;;;;;;;;5063572;27;98428;-78
2023/03/09 14:34:43;;;;;;;5.03;2.50;;;;;;;;;;5080694;27;99662;-77
2023/03/09 14:37:17;;;;;;;4.28;2.28;;;;;;;;;;5076152;27;98857;-76
2023/03/09 14:39:44;;;;;;;5.80;2.58;;;;;;;;;;5082170;27;98596;-77
2023/03/09 14:42:11;;;;;;;4.80;2.30;;;;;;;;;;5044494;27;99453;-77
2023/03/09 14:44:39;;;;;;;4.63;2.45;;;;;;;;;;5078198;27;99789;-78
2023/03/09 14:47:11;;;;;;;5.78;2.45;;;;;;;;;;5080426;27;98516;-78
2023/03/09 14:49:38;;;;;;;4.13;2.20;;;;;;;;;;5065764;27;101094;-77
2023/03/09 14:52:04;;;;;;;4.20;2.00;;;;;;;;;;5055951;27;97599;-78
2023/03/09 14:54:30;;;;;;;5.30;2.40;;;;;;;;;;5080060;27;98771;-77
2023/03/09 14:56:57;;;;;;;4.68;2.30;;;;;;;;;;5062483;27;100532;-78